Time;durP1;ratioP1;P1;durP2;ratioP2;P2;SDS_P1;SDS_P2;PMS_P1;PMS_P2;Temp;Humidity;BMP_temperature;BMP_pressure;BME280_temperature;BME280_humidity;BME280_pressure;Samples;Min_cycle;Max_cycle;Signal;HPM_P1;HPM_P2
2022/02/02 00:04:25;;;;;;;0.75;0.38;;;20.10;34.70;;;;;;5015899;28;20459;-68
2022/02/02 00:10:04;;;;;;;0.35;0.30;;;20.10;34.60;;;;;;5033300;28;20430;-69
2022/02/02 00:12:46;;;;;;;0.50;0.20;;;20.10;34.60;;;;;;5033586;28;20762;-74
2022/02/02 00:17:51;;;;;;;0.70;0.30;;;20.10;34.60;;;;;;5015313;28;20402;-71
2022/02/02 00:20:28;;;;;;;0.50;0.30;;;20.10;34.70;;;;;;5015935;28;20443;-74
2022/02/02 00:22:58;;;;;;;0.50;0.20;;;20.00;34.60;;;;;;5015689;28;20497;-71
2022/02/02 00:25:31;;;;;;;0.60;0.40;;;20.00;34.40;;;;;;5015092;28;20443;-71
2022/02/02 00:27:59;;;;;;;0.47;0.30;;;20.00;34.60;;;;;;5015668;28;20454;-71
2022/02/02 00:30:30;;;;;;;0.25;0.20;;;20.00;34.60;;;;;;5015526;28;20404;-71
2022/02/02 00:33:16;;;;;;;0.30;0.20;;;20.00;34.60;;;;;;5015542;28;20439;-75
2022/02/02 00:35:52;;;;;;;0.60;0.20;;;20.00;34.70;;;;;;5014860;28;20423;-70
2022/02/02 00:38:18;;;;;;;0.93;0.30;;;20.00;34.70;;;;;;5015204;28;20409;-72
2022/02/02 00:40:43;;;;;;;0.80;0.20;;;20.00;34.70;;;;;;5015190;28;20809;-75
2022/02/02 00:43:09;;;;;;;0.82;0.20;;;20.00;34.70;;;;;;5015090;28;20392;-73
2022/02/02 00:45:43;;;;;;;0.60;0.30;;;20.00;34.60;;;;;;5014670;28;20389;-73
2022/02/02 00:48:10;;;;;;;0.10;0.10;;;20.00;34.70;;;;;;5015028;28;20407;-75
2022/02/02 00:50:36;;;;;;;0.77;0.30;;;20.00;34.60;;;;;;5013970;28;20468;-71
2022/02/02 00:53:01;;;;;;;1.10;0.20;;;20.00;34.70;;;;;;5013923;28;20830;-70
2022/02/02 00:55:27;;;;;;;0.73;0.23;;;20.00;34.60;;;;;;5013064;28;20726;-69
2022/02/02 00:57:53;;;;;;;0.30;0.30;;;20.00;34.70;;;;;;5013456;28;20408;-68
2022/02/02 01:00:19;;;;;;;0.53;0.20;;;20.00;34.70;;;;;;5013353;28;20471;-73
2022/02/02 01:02:46;;;;;;;0.15;0.15;;;20.00;34.60;;;;;;5013235;28;20447;-70
2022/02/02 01:05:13;;;;;;;0.20;0.17;;;20.00;34.60;;;;;;5029936;28;20447;-72
2022/02/02 01:10:24;;;;;;;0.28;0.20;;;20.00;34.60;;;;;;5014527;28;20788;-73
2022/02/02 01:13:07;;;;;;;0.30;0.20;;;20.00;34.60;;;;;;5013238;28;20408;-70
2022/02/02 01:18:24;;;;;;;0.32;0.30;;;20.00;34.60;;;;;;5014690;28;20419;-72
2022/02/02 01:28:40;;;;;;;0.30;0.20;;;20.00;34.60;;;;;;5014528;28;20415;-73
2022/02/02 01:31:07;;;;;;;0.30;0.20;;;19.90;34.60;;;;;;5029554;28;20879;-72
2022/02/02 01:33:34;;;;;;;0.60;0.40;;;20.00;34.60;;;;;;5012341;28;20401;-73
2022/02/02 01:36:00;;;;;;;0.95;0.20;;;19.90;34.50;;;;;;5014077;28;20396;-69
2022/02/02 01:38:30;;;;;;;0.60;0.30;;;19.90;34.60;;;;;;5014016;28;20439;-72
2022/02/02 01:41:04;;;;;;;0.50;0.30;;;19.90;34.60;;;;;;5012879;28;20421;-73
2022/02/02 01:43:38;;;;;;;0.35;0.20;;;19.90;34.60;;;;;;5012257;28;20392;-75
2022/02/02 01:46:11;;;;;;;0.33;0.20;;;19.90;34.60;;;;;;5013744;28;20478;-72
2022/02/02 01:49:17;;;;;;;0.50;0.20;;;19.90;34.60;;;;;;5013949;28;20389;-75
2022/02/02 01:54:16;;;;;;;0.40;0.22;;;19.90;34.60;;;;;;5014044;28;20443;-73
2022/02/02 01:56:42;;;;;;;0.30;0.30;;;19.90;34.50;;;;;;5013725;28;20471;-73
2022/02/02 02:01:34;;;;;;;0.30;0.22;;;19.90;34.60;;;;;;5013033;28;20397;-70
2022/02/02 02:03:59;;;;;;;0.50;0.35;;;19.90;34.60;;;;;;5012285;28;20503;-69
2022/02/02 02:06:25;;;;;;;0.50;0.20;;;19.90;34.60;;;;;;5012193;28;20484;-73
2022/02/02 02:08:52;;;;;;;0.70;0.30;;;19.90;34.60;;;;;;5012239;28;20772;-73
2022/02/02 02:11:20;;;;;;;0.38;0.20;;;19.90;34.60;;;;;;5013376;28;20389;-73
2022/02/02 02:16:25;;;;;;;0.30;0.20;;;19.90;34.50;;;;;;5013341;28;20396;-74
2022/02/02 02:18:52;;;;;;;0.47;0.25;;;19.90;34.50;;;;;;5011432;28;20416;-73
2022/02/02 02:21:18;;;;;;;0.55;0.30;;;19.90;34.50;;;;;;5013349;28;20935;-74
2022/02/02 02:23:46;;;;;;;0.50;0.30;;;19.90;34.50;;;;;;5011552;28;20436;-70
2022/02/02 02:26:20;;;;;;;0.88;0.20;;;19.90;34.60;;;;;;5013252;28;20468;-76
2022/02/02 02:29:00;;;;;;;0.55;0.30;;;19.90;34.60;;;;;;5012985;28;20470;-71
2022/02/02 02:55:52;;;;;;;0.40;0.20;;;19.90;34.60;;;;;;5032125;28;20371;-73
2022/02/02 02:58:39;;;;;;;0.60;0.20;;;19.80;34.70;;;;;;5032497;28;20403;-75
2022/02/02 03:50:43;;;;;;;0.80;0.30;;;19.80;34.60;;;;;;5031799;28;20426;-68
2022/02/02 04:05:44;;;;;;;0.30;0.20;;;19.80;34.60;;;;;;5031001;28;20397;-70
2022/02/02 04:08:31;;;;;;;1.23;0.30;;;19.80;34.70;;;;;;5031580;28;20399;-69
2022/02/02 04:10:58;;;;;;;1.00;0.30;;;20.00;34.70;;;;;;5031325;28;20391;-68
2022/02/02 04:13:54;;;;;;;2.20;0.50;;;20.10;34.60;;;;;;5031307;28;20897;-74
2022/02/02 04:55:03;;;;;;;0.85;0.45;;;20.80;37.80;;;;;;5034775;28;20394;-67
2022/02/02 05:10:27;;;;;;;1.98;0.38;;;20.70;37.20;;;;;;5034582;28;20890;-68
2022/02/02 05:24:13;;;;;;;1.38;0.43;;;20.70;36.70;;;;;;5034080;28;20925;-68
2022/02/02 05:53:05;;;;;;;1.42;0.40;;;20.40;36.10;;;;;;5033024;28;20395;-67
2022/02/02 05:55:40;;;;;;;1.52;0.60;;;20.40;36.00;;;;;;5032687;28;20395;-68
2022/02/02 05:58:10;;;;;;;2.88;0.57;;;20.40;36.00;;;;;;5031981;28;20442;-68
2022/02/02 06:00:37;;;;;;;2.72;0.60;;;20.30;35.70;;;;;;5033017;28;20411;-74
2022/02/02 06:03:09;;;;;;;2.05;0.80;;;20.30;37.80;;;;;;5033183;28;20397;-74
2022/02/02 06:05:37;;;;;;;5.80;0.73;;;20.40;37.40;;;;;;5031943;28;20439;-73
2022/02/02 06:08:03;;;;;;;2.30;0.50;;;20.40;38.00;;;;;;5032948;28;20383;-75
2022/02/02 06:10:30;;;;;;;2.83;0.50;;;20.40;38.00;;;;;;5031944;28;20399;-76
2022/02/02 06:12:59;;;;;;;2.30;0.60;;;20.50;37.90;;;;;;5033123;28;20387;-76
2022/02/02 06:15:26;;;;;;;2.88;0.65;;;20.50;37.80;;;;;;5031827;28;20907;-76
2022/02/02 06:17:53;;;;;;;2.63;0.60;;;20.50;37.60;;;;;;5032431;28;20423;-76
2022/02/02 06:20:19;;;;;;;3.15;0.52;;;20.50;37.60;;;;;;5032983;28;20457;-76
2022/02/02 06:22:59;;;;;;;1.98;0.60;;;20.50;37.00;;;;;;5032880;28;20383;-69
2022/02/02 06:25:32;;;;;;;2.47;0.70;;;20.50;36.80;;;;;;5011797;28;20428;-71
2022/02/02 06:28:04;;;;;;;2.05;0.65;;;20.50;36.70;;;;;;5019649;28;20395;-68
2022/02/02 06:30:31;;;;;;;2.22;0.80;;;20.50;37.20;;;;;;5031073;28;20812;-68
2022/02/02 06:33:02;;;;;;;3.88;0.60;;;20.50;36.80;;;;;;5031500;28;20389;-69
2022/02/02 06:35:29;;;;;;;2.35;0.80;;;20.60;37.30;;;;;;5031887;28;20427;-69
2022/02/02 06:37:55;;;;;;;2.00;0.80;;;20.70;37.40;;;;;;5031998;28;20391;-71
2022/02/02 06:40:23;;;;;;;3.83;0.80;;;20.70;37.30;;;;;;5031635;28;20422;-76
2022/02/02 06:42:50;;;;;;;3.03;0.93;;;20.80;38.00;;;;;;5022989;28;20398;-69
2022/02/02 06:45:17;;;;;;;2.30;0.70;;;20.80;38.40;;;;;;5030171;28;20414;-72
2022/02/02 06:47:47;;;;;;;2.13;0.90;;;20.70;38.70;;;;;;5030134;28;20391;-74
2022/02/02 06:52:50;;;;;;;2.40;0.82;;;20.70;38.20;;;;;;5030620;28;20485;-69
2022/02/02 06:55:29;;;;;;;4.63;0.90;;;20.70;38.10;;;;;;5024040;28;20387;-73
2022/02/02 06:58:30;;;;;;;2.42;0.88;;;20.70;38.10;;;;;;5028160;28;20402;-74
2022/02/02 07:06:20;;;;;;;3.25;1.10;;;20.70;37.50;;;;;;5030121;28;20418;-70
2022/02/02 07:14:14;;;;;;;2.17;0.80;;;20.80;37.30;;;;;;5029912;28;20387;-68
2022/02/02 07:17:09;;;;;;;3.57;0.90;;;20.80;37.10;;;;;;5029926;28;20398;-70
2022/02/02 07:30:29;;;;;;;2.85;0.80;;;20.80;36.40;;;;;;5011144;28;20382;-70
2022/02/02 07:33:11;;;;;;;2.60;0.93;;;20.80;36.50;;;;;;5028719;28;20424;-71
2022/02/02 07:36:30;;;;;;;3.80;0.90;;;20.80;36.50;;;;;;5031316;28;20395;-69
2022/02/02 07:38:58;;;;;;;3.22;0.90;;;20.80;36.40;;;;;;5030463;28;20400;-68
2022/02/02 07:41:30;;;;;;;2.28;0.90;;;20.80;36.90;;;;;;5021944;28;20770;-68
2022/02/02 07:44:03;;;;;;;2.83;1.00;;;20.70;36.30;;;;;;5030266;28;20379;-74
2022/02/02 07:46:30;;;;;;;2.23;0.90;;;20.80;36.30;;;;;;5029727;28;20507;-74
2022/02/02 07:48:56;;;;;;;2.20;1.10;;;20.80;36.20;;;;;;5029709;28;20423;-75
2022/02/02 07:51:24;;;;;;;2.17;1.13;;;20.90;35.90;;;;;;5030917;28;20486;-76
2022/02/02 07:53:53;;;;;;;2.35;1.25;;;20.90;36.00;;;;;;5030111;28;20395;-72
2022/02/02 07:56:27;;;;;;;3.00;1.30;;;20.80;35.90;;;;;;5030305;28;20403;-73
2022/02/02 07:59:10;;;;;;;2.83;1.48;;;20.80;35.90;;;;;;5029452;28;20945;-75
2022/02/02 08:01:36;;;;;;;3.70;1.40;;;20.80;35.80;;;;;;5030947;28;20473;-70
2022/02/02 08:04:02;;;;;;;2.03;1.20;;;20.80;35.80;;;;;;5029892;28;20482;-73
2022/02/02 08:06:29;;;;;;;3.03;1.45;;;20.70;35.80;;;;;;5030396;28;21852;-75
2022/02/02 08:08:54;;;;;;;2.58;1.48;;;20.70;35.80;;;;;;5027710;28;20452;-69
2022/02/02 08:11:30;;;;;;;3.55;1.60;;;20.70;35.70;;;;;;5027001;28;20783;-70
2022/02/02 08:13:59;;;;;;;2.17;1.17;;;20.70;35.70;;;;;;5021169;28;20474;-70
2022/02/02 08:16:25;;;;;;;2.40;1.30;;;20.70;35.60;;;;;;5029385;28;20418;-68
2022/02/02 08:18:53;;;;;;;3.00;1.03;;;20.70;35.60;;;;;;5033166;28;20510;-72
2022/02/02 08:21:19;;;;;;;2.78;1.10;;;20.70;35.60;;;;;;5032259;28;20417;-72
2022/02/02 08:23:45;;;;;;;2.87;1.20;;;20.70;35.50;;;;;;5032248;28;20895;-72
2022/02/02 08:26:15;;;;;;;2.50;1.30;;;20.70;35.50;;;;;;5034031;28;20462;-73
2022/02/02 08:28:42;;;;;;;2.70;1.30;;;20.70;35.40;;;;;;5034575;28;20387;-70
2022/02/02 08:31:07;;;;;;;2.30;1.08;;;20.80;35.90;;;;;;5034201;28;20874;-75
2022/02/02 08:33:38;;;;;;;2.80;1.30;;;20.70;35.30;;;;;;5034566;28;20470;-71
2022/02/02 08:36:08;;;;;;;1.83;1.00;;;20.70;35.20;;;;;;5033820;28;20764;-75
2022/02/02 08:41:35;;;;;;;3.50;1.30;;;20.70;35.10;;;;;;5033913;28;20452;-71
2022/02/02 08:44:05;;;;;;;2.80;1.40;;;20.70;35.20;;;;;;5033438;28;20383;-73
2022/02/02 08:46:38;;;;;;;3.15;1.13;;;20.70;35.30;;;;;;5032769;28;20418;-70
2022/02/02 08:49:07;;;;;;;2.33;1.15;;;20.70;35.30;;;;;;5032745;28;20546;-73
2022/02/02 08:51:39;;;;;;;2.57;1.20;;;20.70;35.10;;;;;;5032801;28;20403;-71
2022/02/02 08:57:03;;;;;;;2.38;1.20;;;20.70;35.10;;;;;;5033518;28;20398;-71
2022/02/02 09:01:46;;;;;;;2.83;1.20;;;20.70;35.10;;;;;;5033700;28;20387;-70
2022/02/02 09:06:56;;;;;;;2.38;1.15;;;20.70;35.10;;;;;;5033844;28;20413;-74
2022/02/02 09:09:35;;;;;;;1.90;1.00;;;20.70;35.10;;;;;;5034496;28;20489;-68
2022/02/02 09:20:25;;;;;;;2.60;0.95;;;20.70;35.00;;;;;;5032838;28;20489;-68
2022/02/02 09:23:26;;;;;;;2.15;1.05;;;20.70;35.10;;;;;;5033403;28;20438;-75
2022/02/02 09:26:00;;;;;;;2.50;1.10;;;20.70;35.10;;;;;;5032254;28;20423;-68
2022/02/02 09:36:20;;;;;;;2.30;1.10;;;20.60;35.20;;;;;;5028420;28;20767;-72
2022/02/02 09:38:45;;;;;;;2.27;1.10;;;20.70;35.50;;;;;;5032691;28;20830;-72
2022/02/02 09:43:48;;;;;;;17.60;5.35;;;20.70;35.40;;;;;;5033015;28;20460;-68
2022/02/02 09:46:17;;;;;;;32.80;14.20;;;20.80;35.70;;;;;;5030817;28;20415;-69
2022/02/02 09:49:01;;;;;;;34.20;10.38;;;20.80;36.00;;;;;;5031399;28;20875;-69
2022/02/02 09:51:34;;;;;;;32.60;11.30;;;20.90;36.30;;;;;;5030330;28;20506;-68
2022/02/02 09:54:07;;;;;;;42.08;17.92;;;20.90;36.70;;;;;;5028371;28;20418;-69
2022/02/02 10:02:29;;;;;;;37.95;17.73;;;21.00;36.50;;;;;;5029494;28;20405;-71
2022/02/02 10:05:06;;;;;;;38.08;16.05;;;21.00;36.40;;;;;;5030433;28;20890;-68
2022/02/02 10:07:51;;;;;;;28.58;13.60;;;20.90;36.30;;;;;;5031841;28;20932;-69
2022/02/02 10:15:26;;;;;;;21.33;8.80;;;20.90;35.80;;;;;;5031547;28;20445;-69
2022/02/02 10:17:59;;;;;;;20.23;8.60;;;20.90;35.60;;;;;;5029264;28;20859;-68
2022/02/02 10:20:28;;;;;;;19.73;7.78;;;20.80;35.50;;;;;;5031963;28;20422;-68
2022/02/02 10:22:57;;;;;;;18.00;7.25;;;20.90;35.50;;;;;;5032104;28;20783;-72
2022/02/02 10:25:29;;;;;;;14.85;6.38;;;20.80;35.20;;;;;;5031780;28;20387;-68
2022/02/02 10:28:10;;;;;;;14.90;6.03;;;20.90;35.20;;;;;;5031481;28;20427;-68
2022/02/02 10:30:37;;;;;;;14.25;5.82;;;20.90;35.10;;;;;;5031974;28;20514;-70
2022/02/02 10:33:05;;;;;;;15.80;5.78;;;20.80;35.00;;;;;;5031918;28;20390;-75
2022/02/02 10:35:38;;;;;;;12.27;5.07;;;20.70;35.10;;;;;;5031569;28;20449;-69
2022/02/02 10:38:16;;;;;;;11.95;4.78;;;20.70;35.00;;;;;;5031268;28;20406;-68
2022/02/02 10:43:25;;;;;;;10.00;4.10;;;20.70;35.20;;;;;;5030238;28;20743;-69
2022/02/02 10:45:51;;;;;;;10.48;3.70;;;20.70;35.10;;;;;;5029059;28;20422;-68
2022/02/02 10:48:32;;;;;;;11.95;3.88;;;20.60;35.00;;;;;;5023761;28;20399;-69
2022/02/02 10:51:17;;;;;;;8.95;3.40;;;20.60;35.00;;;;;;5015425;28;20423;-67
2022/02/02 10:54:07;;;;;;;8.02;3.40;;;20.60;35.00;;;;;;5031221;28;20478;-68
2022/02/02 11:01:36;;;;;;;6.45;2.58;;;20.50;34.90;;;;;;5031338;28;21009;-69
2022/02/02 11:06:46;;;;;;;5.97;2.78;;;20.60;34.90;;;;;;5031889;28;20456;-77
2022/02/02 11:09:15;;;;;;;6.90;2.90;;;20.50;34.90;;;;;;5031688;28;20477;-77
2022/02/02 11:11:43;;;;;;;7.25;2.70;;;20.50;34.80;;;;;;5031556;28;20399;-68
2022/02/02 11:14:16;;;;;;;6.30;2.30;;;20.50;34.80;;;;;;5030426;28;20398;-68
2022/02/02 11:16:50;;;;;;;5.13;2.60;;;20.50;34.80;;;;;;5031306;28;20423;-69
2022/02/02 11:19:17;;;;;;;4.97;2.20;;;20.50;34.80;;;;;;5030923;28;20425;-68
2022/02/02 11:21:43;;;;;;;4.68;2.00;;;20.50;34.70;;;;;;5030506;28;21201;-70
2022/02/02 11:24:20;;;;;;;4.30;2.35;;;20.50;34.80;;;;;;5028921;28;20425;-72
2022/02/02 11:26:48;;;;;;;3.83;1.90;;;20.50;34.70;;;;;;5028874;28;20481;-71
2022/02/02 11:29:38;;;;;;;4.45;2.00;;;20.50;34.80;;;;;;5029507;28;20383;-74
2022/02/02 11:32:09;;;;;;;4.50;2.00;;;20.50;34.70;;;;;;5030342;28;20871;-68
2022/02/02 11:34:35;;;;;;;5.85;2.20;;;20.50;35.00;;;;;;5030942;28;20399;-68
2022/02/02 11:37:03;;;;;;;4.18;1.80;;;20.50;34.90;;;;;;5025290;28;20405;-73
2022/02/02 11:39:44;;;;;;;4.53;1.98;;;20.60;34.90;;;;;;5026036;28;20421;-71
2022/02/02 11:42:50;;;;;;;3.95;1.80;;;20.60;35.10;;;;;;5029516;28;20395;-67
2022/02/02 11:45:40;;;;;;;4.22;1.70;;;20.70;35.90;;;;;;5028733;28;21056;-74
2022/02/02 11:48:16;;;;;;;5.40;1.70;;;20.70;36.00;;;;;;5028357;28;20399;-73
2022/02/02 11:50:52;;;;;;;4.90;1.88;;;20.70;36.20;;;;;;5028754;28;20455;-68
2022/02/02 11:53:50;;;;;;;4.93;1.67;;;20.80;36.30;;;;;;5032144;28;20395;-71
2022/02/02 11:56:17;;;;;;;3.28;1.50;;;20.80;36.30;;;;;;5026965;28;20455;-67
2022/02/02 11:58:44;;;;;;;3.90;1.58;;;20.80;36.20;;;;;;5033028;28;20439;-75
2022/02/02 12:01:26;;;;;;;4.15;1.52;;;20.90;36.20;;;;;;5032255;28;20402;-76
2022/02/02 12:09:06;;;;;;;3.72;1.60;;;20.80;35.80;;;;;;5034993;28;20448;-67
2022/02/02 12:18:56;;;;;;;4.07;1.67;;;20.80;35.70;;;;;;5034660;28;20383;-67
2022/02/02 12:47:17;;;;;;;2.60;1.30;;;20.60;34.90;;;;;;5034334;28;20394;-68
2022/02/02 12:50:03;;;;;;;2.25;1.10;;;20.60;34.90;;;;;;5033793;28;20441;-69
2022/02/02 12:57:56;;;;;;;2.10;1.13;;;20.50;34.80;;;;;;5034108;28;20449;-72
2022/02/02 13:00:24;;;;;;;2.13;1.10;;;20.50;34.70;;;;;;5024430;28;20430;-72
2022/02/02 13:02:51;;;;;;;1.95;1.05;;;20.50;34.80;;;;;;5028965;28;20401;-70
2022/02/02 13:05:24;;;;;;;2.45;1.15;;;20.50;34.80;;;;;;5030779;28;20403;-72
2022/02/02 13:07:52;;;;;;;2.25;1.10;;;20.50;34.80;;;;;;5032157;28;20462;-71
2022/02/02 13:10:25;;;;;;;2.28;1.10;;;20.50;34.80;;;;;;5031255;28;20391;-68
2022/02/02 13:13:03;;;;;;;4.07;1.30;;;20.50;34.80;;;;;;5029698;28;20867;-69
2022/02/02 13:15:41;;;;;;;2.75;1.27;;;20.50;34.70;;;;;;5031822;28;20762;-75
2022/02/02 13:18:15;;;;;;;2.10;1.08;;;20.50;34.70;;;;;;5032738;28;20399;-72
2022/02/02 13:23:51;;;;;;;3.08;1.10;;;20.40;34.60;;;;;;5033222;28;20440;-73
2022/02/02 13:26:38;;;;;;;2.33;1.00;;;20.40;34.60;;;;;;5030602;28;20482;-73
2022/02/02 13:32:01;;;;;;;2.03;1.10;;;20.40;34.50;;;;;;5031273;28;20460;-71
2022/02/02 13:37:32;;;;;;;1.98;0.95;;;20.40;34.50;;;;;;5032331;28;20406;-71
2022/02/02 13:48:54;;;;;;;2.08;1.02;;;20.40;34.50;;;;;;5032883;28;20414;-73
2022/02/02 14:02:11;;;;;;;2.15;0.98;;;20.40;34.40;;;;;;5012528;28;20393;-70
2022/02/02 14:04:59;;;;;;;3.03;0.85;;;20.40;34.40;;;;;;5012589;28;20405;-69
2022/02/02 14:10:44;;;;;;;2.53;1.00;;;20.40;34.40;;;;;;4990226;28;20402;-68
2022/02/02 14:32:26;;;;;;;1.85;0.80;;;20.40;34.60;;;;;;5011598;28;20499;-68
2022/02/02 14:34:52;;;;;;;2.65;1.10;;;20.30;34.30;;;;;;5012094;28;20447;-68
2022/02/02 14:37:23;;;;;;;1.83;0.87;;;20.30;34.30;;;;;;5010557;28;21247;-68
2022/02/02 14:40:00;;;;;;;2.10;0.80;;;20.30;34.30;;;;;;5010573;28;20436;-68
2022/02/02 14:42:31;;;;;;;1.60;1.00;;;20.30;34.30;;;;;;5011470;28;20393;-68
2022/02/02 14:45:03;;;;;;;1.80;0.80;;;20.30;34.30;;;;;;5010369;28;20421;-67
2022/02/02 14:47:36;;;;;;;1.98;0.88;;;20.30;34.30;;;;;;5010256;28;20838;-67
2022/02/02 14:50:14;;;;;;;2.13;0.93;;;20.30;34.30;;;;;;5010460;28;20881;-68
2022/02/02 14:52:54;;;;;;;1.75;0.77;;;20.30;34.30;;;;;;5011805;28;20405;-67
2022/02/02 14:55:54;;;;;;;2.00;0.82;;;20.30;34.30;;;;;;5024073;28;20414;-70
2022/02/02 15:09:14;;;;;;;1.67;0.77;;;20.30;34.20;;;;;;5031362;28;20398;-70
2022/02/02 15:28:11;;;;;;;2.17;0.70;;;20.20;34.30;;;;;;5030789;28;20747;-67
2022/02/02 15:30:51;;;;;;;2.00;0.80;;;20.20;34.50;;;;;;5028555;28;20381;-70
2022/02/02 15:33:21;;;;;;;1.88;0.90;;;20.10;34.70;;;;;;5027309;28;20440;-76
2022/02/02 15:35:48;;;;;;;2.97;0.90;;;20.20;34.70;;;;;;5028602;28;20387;-75
2022/02/02 15:38:22;;;;;;;2.00;0.90;;;20.10;35.00;;;;;;5030684;28;20405;-68
2022/02/02 15:40:57;;;;;;;2.53;0.90;;;20.20;35.00;;;;;;5026566;28;20474;-68
2022/02/02 16:02:10;;;;;;;3.28;0.77;;;20.80;37.20;;;;;;5010242;28;20384;-74
2022/02/02 16:04:38;;;;;;;3.42;1.00;;;20.80;37.50;;;;;;5030535;28;20395;-76
2022/02/02 16:07:06;;;;;;;3.63;1.08;;;20.90;37.40;;;;;;5031190;28;20483;-75
2022/02/02 16:09:44;;;;;;;2.30;0.70;;;20.90;37.30;;;;;;5029982;28;20902;-75
2022/02/02 16:12:23;;;;;;;3.10;0.90;;;20.90;37.10;;;;;;5019934;28;20497;-70
2022/02/02 16:15:00;;;;;;;4.32;0.80;;;20.90;37.20;;;;;;5012341;28;20408;-67
2022/02/02 16:36:24;;;;;;;5.30;1.00;;;20.80;37.40;;;;;;5029893;28;20433;-74
2022/02/02 16:39:00;;;;;;;3.50;0.80;;;20.90;37.10;;;;;;5032387;28;20402;-75
2022/02/02 16:44:10;;;;;;;3.97;1.10;;;21.00;36.50;;;;;;5033940;28;20391;-71
2022/02/02 16:46:35;;;;;;;1.45;0.70;;;21.00;36.70;;;;;;5034013;28;20407;-71
2022/02/02 16:49:02;;;;;;;2.47;0.73;;;21.00;36.80;;;;;;5033908;28;20387;-74
2022/02/02 16:51:28;;;;;;;1.52;0.70;;;21.00;36.60;;;;;;5034328;28;20391;-72
2022/02/02 16:53:57;;;;;;;3.58;1.00;;;21.00;37.10;;;;;;5034142;28;20437;-69
2022/02/02 16:56:53;;;;;;;3.50;1.10;;;21.00;36.90;;;;;;5017671;28;20430;-74
2022/02/02 17:39:54;;;;;;;5.80;1.92;;;21.80;37.80;;;;;;5032505;28;20817;-67
2022/02/02 17:45:01;;;;;;;5.57;1.97;;;22.00;37.00;;;;;;5032089;28;20425;-67
2022/02/02 18:12:24;;;;;;;6.95;2.38;;;22.80;37.90;;;;;;5032739;28;20391;-66
2022/02/02 18:20:16;;;;;;;7.57;1.90;;;23.50;39.80;;;;;;5032634;28;20426;-67
2022/02/02 18:22:50;;;;;;;7.70;2.28;;;23.80;43.20;;;;;;5032203;28;20864;-66
2022/02/02 18:25:25;;;;;;;5.85;1.75;;;23.90;43.50;;;;;;5032517;28;20423;-67
2022/02/02 18:28:00;;;;;;;5.25;1.52;;;23.90;42.40;;;;;;5032430;28;20419;-67
2022/02/02 18:33:49;;;;;;;5.25;1.48;;;23.90;40.60;;;;;;5026947;28;20406;-67
2022/02/02 18:57:07;;;;;;;4.55;1.38;;;24.40;36.60;;;;;;5030864;28;20870;-74
2022/02/02 19:02:49;;;;;;;3.40;1.30;;;24.40;35.90;;;;;;5031890;28;20510;-68
2022/02/02 19:37:49;;;;;;;4.70;1.30;;;24.50;35.40;;;;;;5011573;28;20466;-64
2022/02/02 19:40:22;;;;;;;4.15;1.40;;;24.50;34.90;;;;;;5029832;28;20906;-66
2022/02/02 19:56:41;;;;;;;4.43;1.30;;;24.50;35.10;;;;;;5030458;28;20394;-67
2022/02/02 20:07:30;;;;;;;4.00;1.20;;;24.50;34.90;;;;;;5031198;28;20430;-66
2022/02/02 20:10:29;;;;;;;3.22;1.10;;;24.50;35.20;;;;;;5017318;28;20751;-66
2022/02/02 20:12:43;;;;;;;4.28;1.27;;;24.50;35.20;;;;;;5030877;28;20400;-67
2022/02/02 20:15:13;;;;;;;5.13;1.40;;;24.60;34.90;;;;;;5033951;28;20392;-68
2022/02/02 20:17:39;;;;;;;3.53;1.10;;;24.60;35.20;;;;;;5037775;28;20391;-65
2022/02/02 20:20:17;;;;;;;3.95;1.15;;;24.60;35.10;;;;;;5035662;28;20430;-77
2022/02/02 20:22:44;;;;;;;4.82;1.27;;;24.60;35.10;;;;;;5034744;28;20391;-66
2022/02/02 20:25:12;;;;;;;2.58;1.10;;;24.60;35.10;;;;;;5033732;28;20401;-70
2022/02/02 20:27:39;;;;;;;3.67;1.20;;;24.60;34.80;;;;;;5034770;28;20529;-67
2022/02/02 20:30:06;;;;;;;3.47;1.10;;;24.60;35.10;;;;;;5034561;28;20473;-68
2022/02/02 20:32:32;;;;;;;3.58;1.20;;;24.60;35.10;;;;;;5034759;28;20391;-67
2022/02/02 20:34:58;;;;;;;2.63;0.90;;;24.60;34.30;;;;;;5030633;28;20969;-67
2022/02/02 20:37:24;;;;;;;2.30;1.10;;;24.50;34.80;;;;;;5026624;28;20391;-66
2022/02/02 20:40:05;;;;;;;2.90;1.20;;;24.50;34.70;;;;;;5034029;28;20418;-71
2022/02/02 21:14:57;;;;;;;2.73;0.90;;;24.40;34.10;;;;;;5031591;28;20455;-67
2022/02/02 21:17:26;;;;;;;4.10;1.10;;;24.40;34.20;;;;;;5031749;28;20422;-69
2022/02/02 21:20:07;;;;;;;1.88;0.90;;;24.40;33.60;;;;;;5031351;28;20455;-69
2022/02/02 21:22:35;;;;;;;1.70;0.80;;;24.40;34.00;;;;;;5027758;28;20431;-67
2022/02/02 21:25:31;;;;;;;2.15;0.85;;;24.40;34.00;;;;;;5029907;28;20399;-71
2022/02/02 21:27:58;;;;;;;2.88;0.80;;;24.40;34.10;;;;;;5033065;28;20384;-68
2022/02/02 21:30:25;;;;;;;2.97;0.90;;;24.40;33.90;;;;;;5032894;28;20506;-68
2022/02/02 21:32:51;;;;;;;2.72;0.88;;;24.40;34.00;;;;;;5032548;28;20387;-69
2022/02/02 21:35:17;;;;;;;4.07;1.10;;;24.30;34.00;;;;;;5032524;28;20391;-68
2022/02/02 21:37:47;;;;;;;3.00;0.90;;;24.30;34.10;;;;;;5031488;28;20430;-67
2022/02/02 21:40:19;;;;;;;2.60;1.10;;;24.40;35.40;;;;;;5030700;28;20426;-67
2022/02/02 21:42:46;;;;;;;2.30;0.77;;;24.40;34.70;;;;;;5031067;28;20419;-67
2022/02/02 21:45:13;;;;;;;4.63;2.03;;;24.40;34.60;;;;;;5031504;28;20403;-72
2022/02/02 21:47:40;;;;;;;4.03;1.58;;;24.40;35.50;;;;;;5031306;28;20491;-69
2022/02/02 21:50:11;;;;;;;4.72;1.48;;;24.40;35.40;;;;;;5032773;28;20391;-69
2022/02/02 21:52:38;;;;;;;4.35;1.10;;;24.40;35.10;;;;;;5031046;28;20902;-69
2022/02/02 21:55:06;;;;;;;2.60;1.10;;;24.40;34.90;;;;;;5011615;28;20413;-68
2022/02/02 21:57:32;;;;;;;3.42;1.10;;;24.40;34.60;;;;;;5013367;28;20431;-68
2022/02/02 21:59:59;;;;;;;2.83;0.98;;;24.30;35.50;;;;;;5011959;28;20835;-67
2022/02/02 22:02:24;;;;;;;7.18;1.20;;;24.20;34.20;;;;;;5013339;28;20881;-67
2022/02/02 22:04:50;;;;;;;5.20;1.20;;;24.10;34.00;;;;;;5012833;28;20432;-66
2022/02/02 22:07:16;;;;;;;3.80;1.00;;;24.00;33.80;;;;;;5012083;28;20753;-68
2022/02/02 22:09:47;;;;;;;3.00;0.90;;;24.10;33.90;;;;;;5013005;28;20895;-68
2022/02/02 22:12:13;;;;;;;2.78;0.90;;;24.10;34.00;;;;;;5013248;28;20397;-67
2022/02/02 22:14:40;;;;;;;5.33;1.00;;;24.10;34.00;;;;;;5012568;28;20392;-67
2022/02/02 22:17:06;;;;;;;3.67;0.82;;;24.00;33.70;;;;;;5012789;28;20479;-67
2022/02/02 22:19:34;;;;;;;3.90;1.00;;;24.00;33.50;;;;;;5011639;28;20445;-67
2022/02/02 22:22:01;;;;;;;2.22;0.93;;;24.00;33.80;;;;;;5011612;28;20447;-66
2022/02/02 22:24:27;;;;;;;3.00;0.93;;;24.10;33.90;;;;;;5011295;28;20397;-66
2022/02/02 22:26:53;;;;;;;2.92;1.13;;;24.00;33.80;;;;;;5012587;28;20389;-67
2022/02/02 22:29:18;;;;;;;3.60;1.20;;;24.00;33.80;;;;;;5012796;28;20397;-67
2022/02/02 22:31:44;;;;;;;2.35;0.93;;;24.00;33.70;;;;;;5011379;28;20393;-67
2022/02/02 22:34:10;;;;;;;2.17;1.20;;;24.00;33.80;;;;;;5011438;28;20428;-67
2022/02/02 22:36:36;;;;;;;3.85;1.00;;;24.00;33.80;;;;;;5010088;28;20451;-67
2022/02/02 22:39:02;;;;;;;2.40;0.82;;;24.00;33.80;;;;;;5012451;28;21027;-67
2022/02/02 22:41:28;;;;;;;3.60;0.90;;;24.00;33.80;;;;;;5012302;28;20461;-67
2022/02/02 22:43:54;;;;;;;4.65;1.02;;;23.90;33.70;;;;;;5012686;28;20436;-67
2022/02/02 22:46:25;;;;;;;4.30;1.00;;;23.90;33.50;;;;;;5012452;28;20773;-67
2022/02/02 22:48:51;;;;;;;3.38;0.90;;;23.90;33.60;;;;;;5012117;28;20388;-67
2022/02/02 22:51:17;;;;;;;3.22;1.10;;;23.90;33.50;;;;;;5012456;28;20395;-67
2022/02/02 22:53:43;;;;;;;3.80;1.10;;;23.80;33.60;;;;;;5012456;28;20479;-67
2022/02/02 22:56:09;;;;;;;2.90;0.85;;;23.80;33.50;;;;;;5011912;28;20392;-67
2022/02/02 22:58:35;;;;;;;2.83;0.88;;;23.80;33.50;;;;;;5011938;28;20436;-67
2022/02/02 23:01:00;;;;;;;2.33;1.23;;;23.80;33.60;;;;;;5012352;28;20412;-67
2022/02/02 23:03:28;;;;;;;2.22;1.08;;;23.70;33.40;;;;;;5012401;28;20443;-67
2022/02/02 23:05:59;;;;;;;5.10;1.08;;;23.70;33.40;;;;;;5011658;28;20517;-67
2022/02/02 23:08:28;;;;;;;3.22;1.05;;;23.70;33.30;;;;;;5011065;28;20401;-67
2022/02/02 23:10:54;;;;;;;2.20;0.90;;;23.70;33.40;;;;;;5011365;28;20412;-68
2022/02/02 23:13:20;;;;;;;1.77;0.80;;;23.70;33.40;;;;;;5011644;28;20400;-67
2022/02/02 23:15:59;;;;;;;3.40;1.00;;;23.60;33.40;;;;;;5012261;28;20468;-67
2022/02/02 23:18:28;;;;;;;2.03;1.00;;;23.60;33.30;;;;;;5010770;28;20491;-68
2022/02/02 23:20:59;;;;;;;2.30;0.98;;;23.50;33.30;;;;;;5011632;28;21002;-67
2022/02/02 23:23:28;;;;;;;1.88;0.88;;;23.50;33.30;;;;;;5012143;28;20377;-67
2022/02/02 23:25:55;;;;;;;2.83;0.90;;;23.50;33.40;;;;;;5011886;28;20401;-68
2022/02/02 23:28:26;;;;;;;2.80;0.82;;;23.50;33.40;;;;;;5011999;28;20744;-67
2022/02/02 23:30:53;;;;;;;3.67;0.98;;;23.50;33.40;;;;;;5011588;28;20394;-67
2022/02/02 23:33:18;;;;;;;2.53;1.10;;;23.40;33.40;;;;;;5011878;28;20443;-67
2022/02/02 23:35:46;;;;;;;2.75;0.82;;;23.40;33.40;;;;;;5011913;28;20389;-67
2022/02/02 23:38:12;;;;;;;3.05;1.05;;;23.40;33.40;;;;;;5010578;28;20811;-67